Ice Angel — 2BRA3 — position and weather

sailwx.info

Track history (hours):
 
Tides and Currents Weather Stations Pressure Air Temp Water Temp Dewpoint Dewpoint Depression Visibility Wind Speed Wind Dir Waves Ship Positions

Ice Angel

Last reported at 2016-Sep-22 23:33 UTC. Time now 2016-Dec-07 14:32 UTC.
Position N 43°25' E 007°05'.
Warning: this ship's position is months out of date.

Length 60 m; draft 3.5 m.

Type: Other ship. MMSI: 235068579.

Date/timePositionNaut miles runAvg speedWind from/ knotsBaromVisibWave heightAir tempDewpointWater temp
2016-Sep-22 23:33N 43°25' E 007°05'25 0.6
2016-Sep-21 09:17N 43°44' E 007°26'5 0.8
2016-Sep-21 03:13N 43°42' E 007°21'0 0.0
2016-Sep-21 02:13N 43°42' E 007°21'0 0.0
2016-Sep-20 13:31N 43°42' E 007°21'0 0.0
2016-Sep-20 10:22N 43°42' E 007°21'0 0.0
2016-Sep-20 08:33N 43°42' E 007°21'0 0.0
2016-Sep-20 07:33N 43°42' E 007°21'0 0.0
2016-Sep-20 06:33N 43°42' E 007°21'0 0.0
2016-Sep-20 02:34N 43°42' E 007°21'0 0.0
2016-Sep-19 23:33N 43°42' E 007°21'0 0.0
2016-Sep-19 19:28N 43°42' E 007°21'0 0.0
2016-Sep-19 18:33N 43°42' E 007°21'0 0.0
2016-Sep-19 16:30N 43°42' E 007°21'6 2.9
2016-Sep-19 14:33N 43°37' E 007°16'1111.1
2016-Sep-19 13:34N 43°31' E 007°04'0 0.0
2016-Sep-19 12:33N 43°31' E 007°03'0 0.0
2016-Sep-19 11:34N 43°31' E 007°03'0 0.0
2016-Sep-19 09:33N 43°31' E 007°03'0 0.1
2016-Sep-19 07:33N 43°31' E 007°04'  
2016-Sep-14 16:22N 43°26' E 006°58'23 3.9
2016-Sep-14 10:33N 43°41' E 007°21'0 0.5
2016-Sep-14 09:33N 43°41' E 007°21'4212.6
2016-Sep-14 06:14N 43°06' E 007°52'  
Track history (hours):
 
Tides and Currents Weather Stations Pressure Air Temp Water Temp Dewpoint Dewpoint Depression Visibility Wind Speed Wind Dir Waves Ship Positions

Ice Angel

Last reported at 2016-Sep-22 23:33 UTC. Time now 2016-Dec-07 14:32 UTC.
Position N 43°25' E 007°05'.
Warning: this ship's position is months out of date.

Length 60 m; draft 3.5 m.

Type: Other ship. MMSI: 235068579.

Date/timePositionNaut miles runAvg speedWind from/ knotsBaromVisibWave heightAir tempDewpointWater temp
2016-Sep-22 23:33N 43°25' E 007°05'25 0.6
2016-Sep-21 09:17N 43°44' E 007°26'5 0.8
2016-Sep-21 03:13N 43°42' E 007°21'0 0.0
2016-Sep-21 02:13N 43°42' E 007°21'0 0.0
2016-Sep-20 13:31N 43°42' E 007°21'0 0.0
2016-Sep-20 10:22N 43°42' E 007°21'0 0.0
2016-Sep-20 08:33N 43°42' E 007°21'0 0.0
2016-Sep-20 07:33N 43°42' E 007°21'0 0.0
2016-Sep-20 06:33N 43°42' E 007°21'0 0.0
2016-Sep-20 02:34N 43°42' E 007°21'0 0.0
2016-Sep-19 23:33N 43°42' E 007°21'0 0.0
2016-Sep-19 19:28N 43°42' E 007°21'0 0.0
2016-Sep-19 18:33N 43°42' E 007°21'0 0.0
2016-Sep-19 16:30N 43°42' E 007°21'6 2.9
2016-Sep-19 14:33N 43°37' E 007°16'1111.1
2016-Sep-19 13:34N 43°31' E 007°04'0 0.0
2016-Sep-19 12:33N 43°31' E 007°03'0 0.0
2016-Sep-19 11:34N 43°31' E 007°03'0 0.0
2016-Sep-19 09:33N 43°31' E 007°03'0 0.1
2016-Sep-19 07:33N 43°31' E 007°04'  
2016-Sep-14 16:22N 43°26' E 006°58'23 3.9
2016-Sep-14 10:33N 43°41' E 007°21'0 0.5
2016-Sep-14 09:33N 43°41' E 007°21'4212.6
2016-Sep-14 06:14N 43°06' E 007°52'  

Dump ship's entire track history